createdAt,value
2023-03-06T00:00:23.760Z,95759.05
2023-03-06T00:03:10.618Z,95757.11
2023-03-06T00:05:37.406Z,95762.55
2023-03-06T00:08:04.731Z,95760.74
2023-03-06T00:10:32.697Z,95761.64
2023-03-06T00:13:04.871Z,95767.89
2023-03-06T00:15:32.302Z,95762.84
2023-03-06T00:17:59.666Z,95764.16
2023-03-06T00:20:26.534Z,95763.18
2023-03-06T00:22:56.219Z,95762.42
2023-03-06T00:25:23.495Z,95758.80
2023-03-06T00:27:50.729Z,95754.60
2023-03-06T00:30:21.050Z,95753.86
2023-03-06T00:32:48.095Z,95755.80
2023-03-06T00:35:15.656Z,95755.40
2023-03-06T00:37:44.444Z,95754.45
2023-03-06T00:40:15.020Z,95755.77
2023-03-06T00:42:42.229Z,95755.13
2023-03-06T00:45:10.504Z,95753.70
2023-03-06T00:47:40.013Z,95752.56
2023-03-06T00:50:07.741Z,95754.52
2023-03-06T00:52:35.132Z,95754.36
2023-03-06T00:55:02.174Z,95754.58
2023-03-06T00:57:28.933Z,95758.82
2023-03-06T00:59:57.306Z,95759.96
2023-03-06T01:02:24.865Z,95760.45
2023-03-06T01:04:54.128Z,95759.16
2023-03-06T01:07:20.988Z,95759.65
2023-03-06T01:09:47.835Z,95759.92
2023-03-06T01:12:14.760Z,95759.90
2023-03-06T01:14:41.442Z,95760.69
2023-03-06T01:17:10.095Z,95763.42
2023-03-06T01:19:36.741Z,95765.82
2023-03-06T01:22:03.471Z,95766.62
2023-03-06T01:24:31.668Z,95764.85
2023-03-06T01:26:58.768Z,95766.63
2023-03-06T01:29:25.949Z,95766.23
2023-03-06T01:31:52.837Z,95767.88
2023-03-06T01:34:19.750Z,95766.38
2023-03-06T01:36:47.812Z,95769.27
2023-03-06T01:39:14.558Z,95764.30
2023-03-06T01:41:41.298Z,95762.50
2023-03-06T01:44:12.932Z,95760.31
2023-03-06T01:46:44.369Z,95757.61
2023-03-06T01:49:20.356Z,95757.20
2023-03-06T01:51:52.195Z,95759.66
2023-03-06T01:54:30.457Z,95758.11
2023-03-06T01:57:03.015Z,95758.08
2023-03-06T01:59:32.573Z,95755.74
2023-03-06T02:02:01.367Z,95756.02
2023-03-06T02:04:29.490Z,95761.64
2023-03-06T02:07:00.001Z,95765.67
2023-03-06T02:09:30.351Z,95766.70
2023-03-06T02:11:57.134Z,95767.19
2023-03-06T02:14:23.917Z,95766.83
2023-03-06T02:16:50.982Z,95768.41
2023-03-06T02:19:56.829Z,95765.20
2023-03-06T02:22:29.392Z,95761.80
2023-03-06T02:25:14.716Z,95766.67
2023-03-06T02:27:41.530Z,95769.15
2023-03-06T02:30:14.341Z,95764.17
2023-03-06T02:32:41.147Z,95767.48
2023-03-06T02:35:19.089Z,95762.55
2023-03-06T02:37:46.507Z,95765.29
2023-03-06T02:40:15.710Z,95772.34
2023-03-06T02:42:50.702Z,95769.13
2023-03-06T02:45:25.389Z,95770.92
2023-03-06T02:47:52.122Z,95767.10
2023-03-06T02:50:18.839Z,95767.98
2023-03-06T02:52:45.689Z,95765.33
2023-03-06T02:55:12.635Z,95763.50
2023-03-06T02:57:40.702Z,95764.59
2023-03-06T03:00:08.229Z,95766.90
2023-03-06T03:02:35.201Z,95763.83
2023-03-06T03:05:02.486Z,95772.81
2023-03-06T03:07:29.543Z,95772.85
2023-03-06T03:09:56.345Z,95773.13
2023-03-06T03:12:23.905Z,95772.97
2023-03-06T03:14:50.567Z,95773.73
2023-03-06T03:17:17.327Z,95771.42
2023-03-06T03:19:46.293Z,95768.34
2023-03-06T03:22:13.287Z,95766.83
2023-03-06T03:24:41.463Z,95764.13
2023-03-06T03:27:09.796Z,95767.42
2023-03-06T03:29:36.443Z,95773.19
2023-03-06T03:32:04.394Z,95769.32
2023-03-06T03:34:31.292Z,95769.86
2023-03-06T03:36:58.113Z,95771.88
2023-03-06T03:39:24.922Z,95772.13
2023-03-06T03:41:51.861Z,95772.87
2023-03-06T03:44:19.210Z,95776.80
2023-03-06T03:46:46.042Z,95771.04
2023-03-06T03:49:16.857Z,95771.69
2023-03-06T03:51:44.250Z,95767.88
2023-03-06T03:54:11.073Z,95771.93
2023-03-06T03:56:41.312Z,95771.48
2023-03-06T03:59:13.998Z,95771.46
2023-03-06T04:01:47.598Z,95776.42
2023-03-06T04:04:15.159Z,95777.87
2023-03-06T04:06:42.025Z,95780.38
2023-03-06T04:09:09.247Z,95780.95
2023-03-06T04:11:36.404Z,95782.34
2023-03-06T04:14:03.556Z,95788.75
2023-03-06T04:16:30.846Z,95791.96
2023-03-06T04:18:57.913Z,95791.33
2023-03-06T04:21:24.952Z,95789.48
2023-03-06T04:23:52.052Z,95792.19
2023-03-06T04:26:19.914Z,95795.06
2023-03-06T04:28:46.833Z,95796.71
2023-03-06T04:31:14.147Z,95795.02
2023-03-06T04:33:40.956Z,95791.66
2023-03-06T04:36:22.040Z,95793.02
2023-03-06T04:38:48.739Z,95791.56
2023-03-06T04:41:15.921Z,95794.03
2023-03-06T04:43:43.093Z,95795.33
2023-03-06T04:46:10.972Z,95790.13
2023-03-06T04:48:38.000Z,95789.61
2023-03-06T04:51:04.908Z,95788.56
2023-03-06T04:53:32.267Z,95788.25
2023-03-06T04:55:59.234Z,95790.07
2023-03-06T04:58:26.083Z,95793.91
2023-03-06T05:00:53.082Z,95790.64
2023-03-06T05:03:19.771Z,95791.75
2023-03-06T05:05:46.591Z,95792.39
2023-03-06T05:08:15.262Z,95793.45
2023-03-06T05:10:43.141Z,95801.13
2023-03-06T05:13:10.207Z,95800.81
2023-03-06T05:15:39.534Z,95802.73
2023-03-06T05:18:06.261Z,95805.81
2023-03-06T05:20:33.193Z,95800.61
2023-03-06T05:22:59.932Z,95807.66
2023-03-06T05:25:26.676Z,95813.14
2023-03-06T05:27:53.624Z,95816.07
2023-03-06T05:30:22.607Z,95819.05
2023-03-06T05:32:50.009Z,95819.80
2023-03-06T05:35:19.836Z,95821.61
2023-03-06T05:37:47.559Z,95819.00
2023-03-06T05:40:16.229Z,95823.08
2023-03-06T05:42:43.384Z,95822.08
2023-03-06T05:45:11.043Z,95823.67
2023-03-06T05:47:38.021Z,95826.42
2023-03-06T05:50:05.179Z,95820.83
2023-03-06T05:52:31.807Z,95825.02
2023-03-06T05:54:58.485Z,95830.54
2023-03-06T05:57:25.149Z,95828.85
2023-03-06T05:59:52.203Z,95831.57
2023-03-06T06:02:19.295Z,95836.88
2023-03-06T06:04:46.606Z,95840.30
2023-03-06T06:07:15.498Z,95839.25
2023-03-06T06:09:44.918Z,95841.59
2023-03-06T06:12:12.256Z,95839.46
2023-03-06T06:14:39.096Z,95843.46
2023-03-06T06:17:05.735Z,95838.09
2023-03-06T06:19:32.446Z,95837.52
2023-03-06T06:22:01.988Z,95837.32
2023-03-06T06:24:30.045Z,95839.58
2023-03-06T06:26:58.103Z,95828.36
2023-03-06T06:29:26.688Z,95834.39
2023-03-06T06:31:54.693Z,95838.56
2023-03-06T06:34:22.644Z,95839.14
2023-03-06T06:36:52.240Z,95836.39
2023-03-06T06:39:22.202Z,95843.47
2023-03-06T06:42:05.431Z,95839.43
2023-03-06T06:44:38.082Z,95843.00
2023-03-06T06:47:23.476Z,95843.40
2023-03-06T06:49:53.561Z,95843.56
2023-03-06T06:52:20.977Z,95840.60
2023-03-06T06:54:47.880Z,95840.20
2023-03-06T06:57:15.471Z,95846.33
2023-03-06T06:59:42.685Z,95845.69
2023-03-06T07:02:15.983Z,95841.23
2023-03-06T07:04:56.510Z,95838.48
2023-03-06T07:07:29.463Z,95834.96
2023-03-06T07:09:56.373Z,95831.70
2023-03-06T07:12:23.223Z,95834.74
2023-03-06T07:14:50.872Z,95838.34
2023-03-06T07:17:17.750Z,95835.29
2023-03-06T07:19:44.802Z,95832.77
2023-03-06T07:22:12.015Z,95834.89
2023-03-06T07:24:38.757Z,95836.24
2023-03-06T07:27:05.710Z,95837.79
2023-03-06T07:29:33.890Z,95838.54
2023-03-06T07:32:01.387Z,95840.23
2023-03-06T07:34:28.297Z,95844.20
2023-03-06T07:36:55.347Z,95838.63
2023-03-06T07:39:21.978Z,95845.08
2023-03-06T07:41:48.608Z,95850.75
2023-03-06T07:44:15.257Z,95852.40
2023-03-06T07:46:42.049Z,95848.07
2023-03-06T07:49:08.943Z,95837.61
2023-03-06T07:51:35.473Z,95847.66
2023-03-06T07:54:02.219Z,95852.52
2023-03-06T07:56:29.260Z,95852.66
2023-03-06T07:58:57.046Z,95843.41
2023-03-06T08:01:24.689Z,95849.80
2023-03-06T08:03:51.863Z,95849.83
2023-03-06T08:06:24.536Z,95850.48
2023-03-06T08:08:53.076Z,95856.70
2023-03-06T08:11:22.193Z,95860.34
2023-03-06T08:13:52.116Z,95859.27
2023-03-06T08:16:24.431Z,95860.75
2023-03-06T08:18:51.526Z,95858.05
2023-03-06T08:21:20.914Z,95860.36
2023-03-06T08:23:47.694Z,95862.02
2023-03-06T08:26:20.672Z,95864.79
2023-03-06T08:28:47.933Z,95860.77
2023-03-06T08:31:30.748Z,95859.70
2023-03-06T08:34:00.457Z,95868.64
2023-03-06T08:36:27.812Z,95865.78
2023-03-06T08:38:54.862Z,95861.44
2023-03-06T08:41:21.685Z,95863.00
2023-03-06T08:43:49.099Z,95867.14
2023-03-06T08:46:18.232Z,95871.05
2023-03-06T08:48:47.503Z,95869.81
2023-03-06T08:51:15.105Z,95868.90
2023-03-06T08:53:43.993Z,95868.02
2023-03-06T08:56:26.613Z,95868.35
2023-03-06T08:58:54.369Z,95866.52
2023-03-06T09:01:27.148Z,95866.87
2023-03-06T09:03:56.271Z,95865.42
2023-03-06T09:06:24.036Z,95865.98
2023-03-06T09:08:52.406Z,95864.80
2023-03-06T09:11:20.533Z,95866.51
2023-03-06T09:13:47.221Z,95869.09
2023-03-06T09:16:14.100Z,95870.16
2023-03-06T09:18:41.397Z,95869.69
2023-03-06T09:21:09.282Z,95870.52
2023-03-06T09:23:38.843Z,95871.06
2023-03-06T09:26:06.950Z,95877.79
2023-03-06T09:28:38.399Z,95878.19
2023-03-06T09:31:09.627Z,95876.27
2023-03-06T09:33:37.236Z,95872.22
2023-03-06T09:36:05.674Z,95873.79
2023-03-06T09:38:32.781Z,95874.41
2023-03-06T09:41:02.521Z,95873.48
2023-03-06T09:43:40.053Z,95867.80
2023-03-06T09:46:22.909Z,95870.60
2023-03-06T09:49:22.536Z,95874.45
2023-03-06T09:52:16.553Z,95875.31
2023-03-06T09:54:46.546Z,95875.80
2023-03-06T09:57:35.676Z,95876.17
2023-03-06T10:00:14.046Z,95876.41
2023-03-06T10:02:49.719Z,95872.34
2023-03-06T10:05:24.347Z,95873.34
2023-03-06T10:07:57.926Z,95870.50
2023-03-06T10:10:32.590Z,95866.02
2023-03-06T10:13:05.427Z,95865.14
2023-03-06T10:15:36.576Z,95870.25
2023-03-06T10:18:04.756Z,95865.36
2023-03-06T10:20:40.522Z,95861.52
2023-03-06T10:23:31.912Z,95864.54
2023-03-06T10:26:11.194Z,95863.64
2023-03-06T10:28:45.837Z,95866.63
2023-03-06T10:31:21.916Z,95866.55
2023-03-06T10:33:51.711Z,95864.05
2023-03-06T10:36:21.773Z,95859.41
2023-03-06T10:38:48.746Z,95857.98
2023-03-06T10:41:35.174Z,95853.02
2023-03-06T10:44:04.664Z,95846.37
2023-03-06T10:46:52.899Z,95846.73
2023-03-06T10:49:37.219Z,95840.04
2023-03-06T10:52:21.272Z,95837.16
2023-03-06T10:54:48.625Z,95834.45
2023-03-06T10:57:30.541Z,95836.06
2023-03-06T11:00:03.908Z,95835.90
2023-03-06T11:02:35.849Z,95828.45
2023-03-06T11:05:04.367Z,95824.13
2023-03-06T11:07:33.469Z,95824.42
2023-03-06T11:10:20.523Z,95813.16
2023-03-06T11:12:57.819Z,95813.34
2023-03-06T11:15:29.398Z,95814.64
2023-03-06T11:18:04.605Z,95813.84
2023-03-06T11:20:48.575Z,95803.85
2023-03-06T11:23:24.769Z,95797.76
2023-03-06T11:26:16.385Z,95796.48
2023-03-06T11:28:57.293Z,95795.42
2023-03-06T11:31:31.170Z,95793.73
2023-03-06T11:34:08.498Z,95790.23
2023-03-06T11:36:57.834Z,95788.52
2023-03-06T11:39:43.000Z,95785.21
2023-03-06T11:42:48.236Z,95783.19
2023-03-06T11:45:36.285Z,95774.67
2023-03-06T11:48:21.353Z,95772.85
2023-03-06T11:50:53.236Z,95766.98
2023-03-06T11:53:27.218Z,95761.55
2023-03-06T11:56:04.883Z,95760.75
2023-03-06T11:58:59.423Z,95756.34
2023-03-06T12:01:46.606Z,95754.70
2023-03-06T12:04:34.467Z,95745.59
2023-03-06T12:07:31.332Z,95744.59
2023-03-06T12:10:13.927Z,95740.08
2023-03-06T12:13:06.680Z,95736.26
2023-03-06T12:15:36.384Z,95737.83
2023-03-06T12:18:18.295Z,95729.70
2023-03-06T12:21:06.896Z,95729.05
2023-03-06T12:23:48.542Z,95724.58
2023-03-06T12:27:03.002Z,95726.55
2023-03-06T12:29:41.593Z,95726.66
2023-03-06T12:32:45.465Z,95726.04
2023-03-06T12:35:47.442Z,95728.19
2023-03-06T12:38:37.433Z,95720.95
2023-03-06T12:41:21.214Z,95724.16
2023-03-06T12:44:03.310Z,95723.35
2023-03-06T12:46:34.397Z,95723.98
2023-03-06T12:49:08.761Z,95719.06
2023-03-06T12:51:37.055Z,95713.36
2023-03-06T12:54:03.801Z,95712.16
2023-03-06T12:56:32.277Z,95712.23
2023-03-06T12:59:02.281Z,95712.13
2023-03-06T13:01:47.379Z,95708.30
2023-03-06T13:04:35.928Z,95704.65
2023-03-06T13:07:30.389Z,95698.53
2023-03-06T13:10:23.454Z,95698.02
2023-03-06T13:12:57.451Z,95690.86
2023-03-06T13:15:36.520Z,95686.04
2023-03-06T13:18:21.369Z,95677.77
2023-03-06T13:20:48.620Z,95675.64
2023-03-06T13:23:37.675Z,95669.00
2023-03-06T13:26:31.246Z,95668.80
2023-03-06T13:28:58.108Z,95670.04
2023-03-06T13:31:53.216Z,95673.02
2023-03-06T13:34:46.134Z,95666.58
2023-03-06T13:37:12.866Z,95670.56
2023-03-06T13:39:51.918Z,95672.05
2023-03-06T13:42:31.252Z,95671.67
2023-03-06T13:45:14.577Z,95674.88
2023-03-06T13:48:14.132Z,95671.27
2023-03-06T13:50:39.197Z,95669.39
2023-03-06T13:53:27.506Z,95665.84
2023-03-06T13:56:26.779Z,95666.95
2023-03-06T13:59:27.073Z,95668.40
2023-03-06T14:01:54.541Z,95660.67
2023-03-06T14:04:30.934Z,95659.35
2023-03-06T14:07:24.772Z,95657.77
2023-03-06T14:10:17.417Z,95658.36
2023-03-06T14:12:50.307Z,95655.09
2023-03-06T14:15:35.013Z,95660.25
2023-03-06T14:18:05.692Z,95658.62
2023-03-06T14:20:38.483Z,95654.41
2023-03-06T14:23:28.158Z,95649.23
2023-03-06T14:26:16.753Z,95649.89
2023-03-06T14:28:51.355Z,95650.43
2023-03-06T14:31:20.993Z,95645.65
2023-03-06T14:33:56.699Z,95641.73
2023-03-06T14:36:41.555Z,95636.70
2023-03-06T14:39:14.783Z,95641.35
2023-03-06T14:41:41.490Z,95643.06
2023-03-06T14:44:09.776Z,95645.42
2023-03-06T14:46:36.446Z,95638.64
2023-03-06T14:49:07.037Z,95635.80
2023-03-06T14:51:42.449Z,95633.13
2023-03-06T14:54:16.787Z,95635.03
2023-03-06T14:56:50.426Z,95629.98
2023-03-06T14:59:24.547Z,95630.97
2023-03-06T15:01:56.523Z,95633.58
2023-03-06T15:04:41.448Z,95633.02
2023-03-06T15:07:15.625Z,95630.91
2023-03-06T15:09:53.799Z,95633.69
2023-03-06T15:12:20.615Z,95633.46
2023-03-06T15:14:59.441Z,95627.77
2023-03-06T15:17:32.049Z,95634.51
2023-03-06T15:20:00.522Z,95631.69
2023-03-06T15:22:43.111Z,95630.79
2023-03-06T15:25:31.425Z,95636.84
2023-03-06T15:28:03.118Z,95635.45
2023-03-06T15:30:33.852Z,95634.90
2023-03-06T15:33:17.695Z,95630.07
2023-03-06T15:36:21.042Z,95631.27
2023-03-06T15:38:47.731Z,95633.27
2023-03-06T15:41:31.267Z,95633.98
2023-03-06T15:43:59.544Z,95635.33
2023-03-06T15:46:26.992Z,95636.50
2023-03-06T15:49:02.955Z,95637.65
2023-03-06T15:51:31.646Z,95641.23
2023-03-06T15:54:11.392Z,95636.23
2023-03-06T15:56:41.260Z,95637.49
2023-03-06T15:59:21.883Z,95636.83
2023-03-06T16:01:49.743Z,95637.19
2023-03-06T16:04:17.762Z,95635.12
2023-03-06T16:06:45.262Z,95641.45
2023-03-06T16:09:13.256Z,95635.45
2023-03-06T16:11:44.358Z,95635.44
2023-03-06T16:14:23.348Z,95633.86
2023-03-06T16:16:51.990Z,95635.14
2023-03-06T16:19:26.848Z,95634.77
2023-03-06T16:21:55.705Z,95633.64
2023-03-06T16:24:24.297Z,95631.96
2023-03-06T16:26:52.999Z,95632.29
2023-03-06T16:29:25.448Z,95631.61
2023-03-06T16:31:54.766Z,95630.18
2023-03-06T16:34:21.899Z,95627.21
2023-03-06T16:36:49.711Z,95627.01
2023-03-06T16:39:19.744Z,95626.29
2023-03-06T16:41:46.806Z,95627.97
2023-03-06T16:44:13.697Z,95621.09
2023-03-06T16:46:46.440Z,95622.14
2023-03-06T16:49:24.245Z,95622.33
2023-03-06T16:51:53.003Z,95624.08
2023-03-06T16:54:22.648Z,95626.08
2023-03-06T16:56:49.288Z,95627.64
2023-03-06T16:59:16.053Z,95624.76
2023-03-06T17:01:42.852Z,95623.20
2023-03-06T17:04:10.840Z,95623.07
2023-03-06T17:06:37.900Z,95619.89
2023-03-06T17:09:04.741Z,95616.70
2023-03-06T17:11:31.686Z,95618.92
2023-03-06T17:13:58.416Z,95613.98
2023-03-06T17:16:25.059Z,95612.95
2023-03-06T17:18:51.904Z,95608.40
2023-03-06T17:21:18.649Z,95606.54
2023-03-06T17:23:46.081Z,95608.84
2023-03-06T17:26:17.452Z,95606.60
2023-03-06T17:28:45.320Z,95599.31
2023-03-06T17:31:12.340Z,95600.98
2023-03-06T17:33:39.538Z,95602.23
2023-03-06T17:36:07.288Z,95598.88
2023-03-06T17:38:34.762Z,95597.08
2023-03-06T17:41:06.176Z,95589.64
2023-03-06T17:43:33.214Z,95583.84
2023-03-06T17:46:04.197Z,95585.48
2023-03-06T17:48:31.021Z,95584.88
2023-03-06T17:50:57.762Z,95584.05
2023-03-06T17:53:24.583Z,95585.07
2023-03-06T17:55:51.758Z,95583.98
2023-03-06T17:58:18.559Z,95583.38
2023-03-06T18:00:45.643Z,95581.61
2023-03-06T18:03:12.217Z,95583.09
2023-03-06T18:05:39.126Z,95584.14
2023-03-06T18:08:07.810Z,95580.48
2023-03-06T18:10:34.656Z,95580.53
2023-03-06T18:13:01.597Z,95576.92
2023-03-06T18:15:28.283Z,95580.75
2023-03-06T18:17:56.196Z,95585.43
2023-03-06T18:20:22.962Z,95583.61
2023-03-06T18:22:49.683Z,95582.85
2023-03-06T18:25:17.101Z,95583.88
2023-03-06T18:27:43.736Z,95581.20
2023-03-06T18:30:11.025Z,95581.33
2023-03-06T18:32:38.134Z,95577.50
2023-03-06T18:35:05.535Z,95580.68
2023-03-06T18:37:32.148Z,95581.07
2023-03-06T18:39:59.021Z,95578.03
2023-03-06T18:42:26.187Z,95565.80
2023-03-06T18:44:52.924Z,95568.37
2023-03-06T18:47:19.789Z,95569.45
2023-03-06T18:49:46.543Z,95564.98
2023-03-06T18:52:13.166Z,95561.04
2023-03-06T18:54:40.285Z,95561.80
2023-03-06T18:57:06.884Z,95559.45
2023-03-06T18:59:33.562Z,95560.94
2023-03-06T19:02:00.435Z,95559.02
2023-03-06T19:04:27.611Z,95558.93
2023-03-06T19:06:54.640Z,95556.69
2023-03-06T19:09:21.765Z,95555.58
2023-03-06T19:11:49.211Z,95551.19
2023-03-06T19:14:16.060Z,95545.83
2023-03-06T19:16:42.732Z,95544.80
2023-03-06T19:19:09.647Z,95544.55
2023-03-06T19:21:36.137Z,95543.48
2023-03-06T19:24:06.910Z,95545.16
2023-03-06T19:26:33.649Z,95540.52
2023-03-06T19:29:00.296Z,95541.39
2023-03-06T19:31:28.047Z,95539.20
2023-03-06T19:33:56.229Z,95538.66
2023-03-06T19:36:26.857Z,95538.21
2023-03-06T19:38:58.135Z,95536.35
2023-03-06T19:41:25.566Z,95537.65
2023-03-06T19:43:55.177Z,95531.50
2023-03-06T19:46:22.740Z,95530.99
2023-03-06T19:48:58.093Z,95529.27
2023-03-06T19:51:26.274Z,95530.48
2023-03-06T19:53:53.602Z,95525.09
2023-03-06T19:56:23.028Z,95518.81
2023-03-06T19:58:50.472Z,95520.16
2023-03-06T20:01:19.772Z,95515.49
2023-03-06T20:03:46.790Z,95513.90
2023-03-06T20:06:16.969Z,95511.44
2023-03-06T20:08:45.042Z,95509.02
2023-03-06T20:11:23.818Z,95509.77
2023-03-06T20:13:50.806Z,95504.19
2023-03-06T20:16:18.227Z,95500.82
2023-03-06T20:18:45.276Z,95489.27
2023-03-06T20:21:12.315Z,95489.36
2023-03-06T20:23:39.490Z,95488.67
2023-03-06T20:26:09.094Z,95483.53
2023-03-06T20:28:36.630Z,95486.38
2023-03-06T20:31:24.433Z,95481.81
2023-03-06T20:33:53.353Z,95483.34
2023-03-06T20:36:29.115Z,95475.34
2023-03-06T20:38:58.515Z,95478.33
2023-03-06T20:41:27.913Z,95470.89
2023-03-06T20:43:54.662Z,95467.52
2023-03-06T20:46:22.779Z,95466.48
2023-03-06T20:48:51.621Z,95463.44
2023-03-06T20:51:18.264Z,95460.91
2023-03-06T20:53:50.051Z,95460.55
2023-03-06T20:56:19.708Z,95461.70
2023-03-06T20:58:46.858Z,95464.20
2023-03-06T21:01:24.765Z,95463.35
2023-03-06T21:03:54.292Z,95463.95
2023-03-06T21:06:21.135Z,95465.91
2023-03-06T21:08:48.605Z,95466.88
2023-03-06T21:11:16.351Z,95471.43
2023-03-06T21:13:43.462Z,95469.54
2023-03-06T21:16:13.432Z,95468.02
2023-03-06T21:18:40.470Z,95466.27
2023-03-06T21:21:10.080Z,95465.70
2023-03-06T21:23:37.543Z,95469.36
2023-03-06T21:26:04.587Z,95465.70
2023-03-06T21:28:31.773Z,95467.77
2023-03-06T21:31:02.077Z,95464.25
2023-03-06T21:33:28.997Z,95469.80
2023-03-06T21:35:55.786Z,95475.42
2023-03-06T21:38:23.000Z,95478.83
2023-03-06T21:40:50.041Z,95476.85
2023-03-06T21:43:17.045Z,95466.45
2023-03-06T21:45:45.469Z,95459.78
2023-03-06T21:48:13.442Z,95461.81
2023-03-06T21:50:41.003Z,95458.06
2023-03-06T21:53:09.068Z,95455.90
2023-03-06T21:55:40.976Z,95457.45
2023-03-06T21:58:07.561Z,95455.75
2023-03-06T22:00:35.743Z,95448.95
2023-03-06T22:03:04.023Z,95449.63
2023-03-06T22:05:33.733Z,95448.98
2023-03-06T22:08:00.383Z,95443.76
2023-03-06T22:10:27.622Z,95440.77
2023-03-06T22:12:54.230Z,95449.16
2023-03-06T22:15:21.171Z,95451.20
2023-03-06T22:17:48.151Z,95445.11
2023-03-06T22:20:15.101Z,95441.27
2023-03-06T22:22:43.108Z,95439.38
2023-03-06T22:25:11.345Z,95433.81
2023-03-06T22:27:37.945Z,95434.27
2023-03-06T22:30:05.151Z,95433.34
2023-03-06T22:32:32.430Z,95437.67
2023-03-06T22:34:59.325Z,95437.45
2023-03-06T22:37:26.064Z,95439.29
2023-03-06T22:39:52.744Z,95440.20
2023-03-06T22:42:19.512Z,95441.37
2023-03-06T22:44:46.287Z,95451.16
2023-03-06T22:47:13.120Z,95454.18
2023-03-06T22:49:39.916Z,95459.39
2023-03-06T22:52:06.707Z,95458.17
2023-03-06T22:54:33.362Z,95457.64
2023-03-06T22:57:00.196Z,95458.37
2023-03-06T22:59:27.136Z,95461.57
2023-03-06T23:01:53.983Z,95466.23
2023-03-06T23:04:20.720Z,95464.98
2023-03-06T23:06:47.670Z,95465.34
2023-03-06T23:09:19.934Z,95471.35
2023-03-06T23:12:04.981Z,95469.38
2023-03-06T23:14:50.645Z,95470.64
2023-03-06T23:17:36.271Z,95475.95
2023-03-06T23:20:21.333Z,95474.23
2023-03-06T23:23:06.829Z,95474.33
2023-03-06T23:25:43.709Z,95472.44
2023-03-06T23:28:11.161Z,95470.04
2023-03-06T23:30:39.089Z,95475.77
2023-03-06T23:33:06.593Z,95478.26
2023-03-06T23:35:34.925Z,95482.38
2023-03-06T23:38:02.031Z,95485.52
2023-03-06T23:40:29.688Z,95489.08
2023-03-06T23:42:56.561Z,95501.13
2023-03-06T23:45:23.372Z,95500.42
2023-03-06T23:47:50.228Z,95503.73
2023-03-06T23:50:17.546Z,95506.70
2023-03-06T23:52:44.935Z,95503.17
2023-03-06T23:55:11.975Z,95503.08
2023-03-06T23:57:38.709Z,95501.36
